Time;durP1;ratioP1;P1;durP2;ratioP2;P2;SDS_P1;SDS_P2;PMS_P1;PMS_P2;Temp;Humidity;BMP_temperature;BMP_pressure;BME280_temperature;BME280_humidity;BME280_pressure;Samples;Min_cycle;Max_cycle;Signal;HPM_P1;HPM_P2
2023/08/06 00:01:13;;;;;;;;;0.00;0.00;;;;;;;;5071385;28;8799;-91
2023/08/06 00:03:40;;;;;;;;;1.00;0.00;;;;;;;;5072048;28;8904;-87
2023/08/06 00:06:07;;;;;;;;;1.00;1.00;;;;;;;;5071183;28;8863;-87
2023/08/06 00:08:35;;;;;;;;;1.00;0.00;;;;;;;;5072059;28;8866;-88
2023/08/06 00:11:02;;;;;;;;;0.00;0.00;;;;;;;;5083379;28;8871;-87
2023/08/06 00:13:29;;;;;;;;;0.00;0.00;;;;;;;;5071837;28;8977;-90
2023/08/06 00:16:09;;;;;;;;;0.00;0.00;;;;;;;;5070875;28;8889;-88
2023/08/06 00:18:36;;;;;;;;;0.00;0.00;;;;;;;;5071825;28;8847;-86
2023/08/06 00:21:03;;;;;;;;;0.00;0.00;;;;;;;;5071408;28;8869;-89
2023/08/06 00:23:31;;;;;;;;;0.00;0.00;;;;;;;;5072287;28;8889;-89
2023/08/06 00:25:58;;;;;;;;;0.00;0.00;;;;;;;;5072363;28;8858;-88
2023/08/06 00:28:25;;;;;;;;;0.00;0.00;;;;;;;;5073051;28;8861;-89
2023/08/06 00:30:54;;;;;;;;;0.00;0.00;;;;;;;;5072744;28;8811;-90
2023/08/06 00:33:23;;;;;;;;;0.00;0.00;;;;;;;;5072134;28;8891;-92
2023/08/06 00:35:51;;;;;;;;;0.00;0.00;;;;;;;;5071145;28;8870;-85
2023/08/06 00:38:18;;;;;;;;;0.00;0.00;;;;;;;;5070993;28;8854;-86
2023/08/06 00:40:45;;;;;;;;;0.00;0.00;;;;;;;;5070802;28;9009;-85
2023/08/06 00:43:13;;;;;;;;;0.00;0.00;;;;;;;;5070359;28;8883;-89
2023/08/06 00:45:40;;;;;;;;;0.25;0.00;;;;;;;;5071118;28;8871;-89
2023/08/06 00:48:07;;;;;;;;;0.00;0.00;;;;;;;;5066960;28;8862;-86
2023/08/06 00:50:36;;;;;;;;;0.75;0.00;;;;;;;;5071378;28;8869;-89
2023/08/06 00:53:03;;;;;;;;;0.00;0.00;;;;;;;;5070582;28;8885;-88
2023/08/06 00:55:31;;;;;;;;;0.00;0.00;;;;;;;;5070855;28;8866;-86
2023/08/06 00:57:58;;;;;;;;;0.00;0.00;;;;;;;;5068660;28;8961;-89
2023/08/06 01:00:26;;;;;;;;;0.00;0.00;;;;;;;;5069941;28;8814;-88
2023/08/06 01:02:54;;;;;;;;;0.00;0.00;;;;;;;;5070442;28;8843;-89
2023/08/06 01:05:22;;;;;;;;;0.00;0.00;;;;;;;;5070314;28;8869;-88
2023/08/06 01:08:03;;;;;;;;;0.00;0.00;;;;;;;;5069859;28;8854;-88
2023/08/06 01:10:40;;;;;;;;;0.00;0.00;;;;;;;;5069878;28;8851;-87
2023/08/06 01:13:12;;;;;;;;;0.00;0.00;;;;;;;;5070064;28;8993;-86
2023/08/06 01:15:44;;;;;;;;;0.50;0.00;;;;;;;;5068974;28;9738;-84
2023/08/06 01:18:12;;;;;;;;;0.00;0.00;;;;;;;;5070226;28;8998;-87
2023/08/06 01:20:41;;;;;;;;;0.00;0.00;;;;;;;;5069369;28;8913;-85
2023/08/06 01:23:08;;;;;;;;;0.00;0.00;;;;;;;;5069262;28;8855;-87
2023/08/06 01:25:38;;;;;;;;;1.50;0.00;;;;;;;;5085820;28;8859;-84
2023/08/06 01:28:11;;;;;;;;;0.00;0.00;;;;;;;;5078675;28;9012;-84
2023/08/06 01:30:40;;;;;;;;;0.00;0.00;;;;;;;;5068517;28;8801;-87
2023/08/06 01:33:12;;;;;;;;;0.00;0.00;;;;;;;;5069011;28;8859;-85
2023/08/06 01:35:42;;;;;;;;;0.00;0.00;;;;;;;;5069624;28;8863;-89
2023/08/06 01:38:09;;;;;;;;;0.25;0.00;;;;;;;;5057610;28;8851;-90
2023/08/06 01:40:36;;;;;;;;;0.25;0.00;;;;;;;;5070633;28;8873;-87
2023/08/06 01:43:04;;;;;;;;;0.00;0.00;;;;;;;;5082775;28;8858;-90
2023/08/06 01:45:31;;;;;;;;;0.00;0.00;;;;;;;;5070336;28;8984;-91
2023/08/06 01:47:58;;;;;;;;;0.00;0.00;;;;;;;;5070094;28;8915;-91
2023/08/06 01:50:25;;;;;;;;;0.00;0.00;;;;;;;;5081637;28;8864;-90
2023/08/06 01:52:54;;;;;;;;;2.00;0.00;;;;;;;;5070134;28;8986;-90
2023/08/06 01:55:21;;;;;;;;;0.00;0.00;;;;;;;;5069813;28;8874;-90
2023/08/06 01:57:49;;;;;;;;;0.00;0.00;;;;;;;;5069965;28;8985;-90
2023/08/06 02:00:16;;;;;;;;;0.50;0.00;;;;;;;;5069861;28;8865;-90
2023/08/06 02:02:43;;;;;;;;;1.00;1.00;;;;;;;;5070114;28;9009;-92
2023/08/06 02:05:11;;;;;;;;;1.50;0.75;;;;;;;;5069311;28;8871;-91
2023/08/06 02:07:38;;;;;;;;;1.50;0.00;;;;;;;;5079897;28;8852;-86
2023/08/06 02:10:08;;;;;;;;;1.00;1.00;;;;;;;;5089641;28;8851;-91
2023/08/06 02:12:35;;;;;;;;;1.00;1.00;;;;;;;;5082697;28;8859;-91
2023/08/06 02:15:02;;;;;;;;;1.00;1.00;;;;;;;;5074395;28;8991;-92
2023/08/06 02:17:30;;;;;;;;;2.00;2.00;;;;;;;;5078685;28;8873;-92
2023/08/06 02:19:57;;;;;;;;;2.00;1.75;;;;;;;;5070099;28;8969;-90
2023/08/06 02:22:24;;;;;;;;;1.00;1.00;;;;;;;;5074370;28;8983;-94
2023/08/06 02:24:51;;;;;;;;;4.00;2.25;;;;;;;;5081751;28;8860;-94
2023/08/06 02:27:20;;;;;;;;;0.00;0.00;;;;;;;;5073888;28;8831;-93
2023/08/06 02:29:47;;;;;;;;;1.50;1.50;;;;;;;;5073371;28;8981;-89
2023/08/06 02:32:15;;;;;;;;;2.00;1.00;;;;;;;;5073005;28;8807;-94
2023/08/06 02:34:42;;;;;;;;;2.75;1.00;;;;;;;;5080900;28;8859;-92
2023/08/06 02:37:09;;;;;;;;;1.00;1.00;;;;;;;;5073290;28;8847;-91
2023/08/06 02:39:39;;;;;;;;;1.00;0.75;;;;;;;;5073449;28;8866;-90
2023/08/06 02:42:07;;;;;;;;;0.00;0.00;;;;;;;;5073242;28;8874;-94
2023/08/06 02:44:36;;;;;;;;;0.00;0.00;;;;;;;;5073820;28;8855;-91
2023/08/06 02:47:03;;;;;;;;;0.00;0.00;;;;;;;;5075535;28;8969;-90
2023/08/06 02:49:30;;;;;;;;;0.00;0.00;;;;;;;;5068618;28;8866;-91
2023/08/06 02:51:57;;;;;;;;;0.00;0.00;;;;;;;;5074434;28;8847;-88
2023/08/06 02:54:25;;;;;;;;;0.00;0.00;;;;;;;;5073397;28;8859;-92
2023/08/06 02:56:52;;;;;;;;;0.00;0.00;;;;;;;;5072876;28;9590;-90
2023/08/06 02:59:19;;;;;;;;;0.00;0.00;;;;;;;;5073337;28;8879;-89
2023/08/06 03:01:48;;;;;;;;;0.00;0.00;;;;;;;;5073579;28;8794;-92
2023/08/06 03:04:17;;;;;;;;;0.00;0.00;;;;;;;;5078235;28;8859;-91
2023/08/06 03:06:44;;;;;;;;;0.50;0.50;;;;;;;;5072813;28;8847;-90
2023/08/06 03:09:12;;;;;;;;;1.25;0.75;;;;;;;;5071589;28;8875;-89
2023/08/06 03:11:39;;;;;;;;;0.00;0.00;;;;;;;;5074804;28;8859;-90
2023/08/06 03:14:06;;;;;;;;;0.25;0.25;;;;;;;;5083439;28;8963;-89
2023/08/06 03:16:34;;;;;;;;;1.00;1.00;;;;;;;;5072404;28;8839;-89
2023/08/06 03:19:02;;;;;;;;;0.75;0.75;;;;;;;;5073381;28;8877;-89
2023/08/06 03:21:30;;;;;;;;;0.00;0.00;;;;;;;;5077648;28;8867;-90
2023/08/06 03:23:57;;;;;;;;;1.00;1.00;;;;;;;;5092886;28;8895;-90
2023/08/06 03:26:24;;;;;;;;;1.00;1.00;;;;;;;;5076925;28;8855;-94
2023/08/06 03:28:51;;;;;;;;;1.25;1.00;;;;;;;;5073201;28;8863;-94
2023/08/06 03:31:18;;;;;;;;;0.00;0.00;;;;;;;;5071784;28;8843;-93
2023/08/06 03:33:46;;;;;;;;;0.25;0.25;;;;;;;;5073433;28;8962;-93
2023/08/06 03:36:17;;;;;;;;;0.50;0.50;;;;;;;;5076913;28;8859;-92
2023/08/06 03:38:44;;;;;;;;;0.00;0.00;;;;;;;;5079502;28;8951;-90
2023/08/06 03:41:12;;;;;;;;;1.00;1.00;;;;;;;;5072495;28;8855;-91
2023/08/06 03:43:39;;;;;;;;;1.75;1.75;;;;;;;;5072416;28;8851;-89
2023/08/06 03:46:06;;;;;;;;;3.50;1.75;;;;;;;;5088522;28;8958;-90
2023/08/06 03:48:34;;;;;;;;;1.00;1.00;;;;;;;;5066174;28;8884;-91
2023/08/06 03:51:02;;;;;;;;;2.25;1.75;;;;;;;;5083448;28;8882;-92
2023/08/06 03:53:30;;;;;;;;;2.00;1.25;;;;;;;;5074644;28;8859;-92
2023/08/06 03:55:59;;;;;;;;;5.75;2.75;;;;;;;;5073452;28;8859;-89
2023/08/06 03:58:27;;;;;;;;;2.50;2.50;;;;;;;;5072834;28;8855;-89
2023/08/06 04:00:59;;;;;;;;;3.00;3.00;;;;;;;;5070908;28;8787;-87
2023/08/06 04:03:27;;;;;;;;;3.00;3.00;;;;;;;;5070633;28;8859;-88
2023/08/06 04:05:54;;;;;;;;;2.00;2.00;;;;;;;;5070880;28;8885;-87
2023/08/06 04:08:22;;;;;;;;;2.75;2.75;;;;;;;;5071017;28;8861;-87
2023/08/06 04:10:53;;;;;;;;;3.75;3.75;;;;;;;;5071432;28;8862;-89
2023/08/06 04:13:20;;;;;;;;;1.75;1.75;;;;;;;;5071108;28;9574;-88
2023/08/06 04:15:48;;;;;;;;;5.75;4.00;;;;;;;;5071517;28;8875;-89
2023/08/06 04:18:15;;;;;;;;;3.00;3.00;;;;;;;;5070496;28;8867;-91
2023/08/06 04:20:46;;;;;;;;;3.00;3.00;;;;;;;;5069872;28;8863;-92
2023/08/06 04:23:14;;;;;;;;;1.50;1.50;;;;;;;;5083390;28;8969;-90
2023/08/06 04:25:41;;;;;;;;;5.75;4.75;;;;;;;;5073729;28;8885;-87
2023/08/06 04:28:10;;;;;;;;;5.50;4.00;;;;;;;;5070548;28;8878;-88
2023/08/06 04:30:39;;;;;;;;;7.50;5.00;;;;;;;;5071617;28;8763;-90
2023/08/06 04:33:06;;;;;;;;;4.00;4.00;;;;;;;;5069853;28;8865;-89
2023/08/06 04:35:33;;;;;;;;;4.75;4.75;;;;;;;;5070290;28;8851;-90
2023/08/06 04:38:00;;;;;;;;;7.75;5.75;;;;;;;;5082704;28;8851;-89
2023/08/06 04:40:27;;;;;;;;;2.50;2.50;;;;;;;;5070514;28;9613;-89
2023/08/06 04:42:55;;;;;;;;;7.25;5.75;;;;;;;;5068832;28;8851;-90
2023/08/06 04:45:24;;;;;;;;;6.50;5.00;;;;;;;;5069957;28;8843;-87
2023/08/06 04:47:51;;;;;;;;;5.75;5.75;;;;;;;;5068697;28;8890;-88
2023/08/06 04:50:18;;;;;;;;;4.50;4.50;;;;;;;;5069623;28;8855;-89
2023/08/06 04:52:46;;;;;;;;;5.25;5.25;;;;;;;;5057801;28;8893;-90
2023/08/06 04:55:15;;;;;;;;;4.50;4.50;;;;;;;;5069578;28;8973;-90
2023/08/06 04:57:45;;;;;;;;;11.50;7.00;;;;;;;;5058337;28;8863;-89
2023/08/06 05:00:13;;;;;;;;;6.00;6.00;;;;;;;;5069298;28;8863;-87
2023/08/06 05:02:41;;;;;;;;;6.75;6.75;;;;;;;;5070186;28;8867;-87
2023/08/06 05:05:11;;;;;;;;;7.00;6.00;;;;;;;;5069609;28;8871;-87
2023/08/06 05:07:38;;;;;;;;;7.50;7.50;;;;;;;;5069037;28;8981;-87
2023/08/06 05:10:06;;;;;;;;;7.50;6.50;;;;;;;;5069504;28;8835;-88
2023/08/06 05:12:33;;;;;;;;;6.50;6.00;;;;;;;;5070424;28;8872;-89
2023/08/06 05:15:00;;;;;;;;;8.50;7.25;;;;;;;;5065676;28;8968;-90
2023/08/06 05:17:28;;;;;;;;;6.75;5.00;;;;;;;;5078889;28;8863;-92
2023/08/06 05:19:57;;;;;;;;;6.00;6.00;;;;;;;;5069239;28;8924;-90
2023/08/06 05:22:27;;;;;;;;;7.50;7.25;;;;;;;;5059576;28;8893;-92
2023/08/06 05:24:54;;;;;;;;;8.50;5.00;;;;;;;;5080906;28;8847;-90
2023/08/06 05:27:21;;;;;;;;;5.75;5.75;;;;;;;;5070289;28;8866;-93
2023/08/06 05:29:49;;;;;;;;;4.00;4.00;;;;;;;;5071286;28;8970;-90
2023/08/06 05:32:17;;;;;;;;;6.00;6.00;;;;;;;;5071052;28;8795;-88
2023/08/06 05:34:44;;;;;;;;;6.00;6.00;;;;;;;;5073022;28;8865;-90
2023/08/06 05:37:13;;;;;;;;;5.25;5.25;;;;;;;;5062191;28;8880;-88
2023/08/06 05:39:42;;;;;;;;;5.00;5.00;;;;;;;;5069860;28;8883;-88
2023/08/06 05:42:09;;;;;;;;;7.00;5.25;;;;;;;;5068048;28;8862;-80
2023/08/06 05:44:36;;;;;;;;;6.00;5.25;;;;;;;;5066391;28;8889;-81
2023/08/06 05:47:04;;;;;;;;;4.75;4.75;;;;;;;;5067242;28;8858;-76
2023/08/06 05:49:31;;;;;;;;;4.50;3.00;;;;;;;;5067235;28;8842;-76
2023/08/06 05:51:58;;;;;;;;;7.25;6.00;;;;;;;;5067147;28;8896;-79
2023/08/06 05:54:28;;;;;;;;;5.25;4.75;;;;;;;;5081256;28;8952;-81
2023/08/06 05:56:57;;;;;;;;;3.00;2.75;;;;;;;;5069134;28;8978;-76
2023/08/06 05:59:25;;;;;;;;;3.25;3.25;;;;;;;;5067863;28;8850;-86
2023/08/06 06:01:52;;;;;;;;;0.00;0.00;;;;;;;;5078133;28;8927;-87
2023/08/06 06:04:19;;;;;;;;;3.00;3.00;;;;;;;;5067974;28;8867;-76
2023/08/06 06:06:46;;;;;;;;;3.25;3.25;;;;;;;;5068468;28;9614;-80
2023/08/06 06:09:13;;;;;;;;;2.00;2.00;;;;;;;;5067605;28;8839;-86
2023/08/06 06:11:42;;;;;;;;;3.00;3.00;;;;;;;;5079951;28;8871;-88
2023/08/06 06:14:09;;;;;;;;;3.00;3.00;;;;;;;;5067564;28;8881;-83
2023/08/06 06:16:36;;;;;;;;;3.25;2.00;;;;;;;;5070625;28;8876;-86
2023/08/06 06:19:03;;;;;;;;;2.75;2.75;;;;;;;;5077146;28;8882;-77
2023/08/06 06:21:30;;;;;;;;;3.75;3.75;;;;;;;;5067103;28;8863;-82
2023/08/06 06:23:58;;;;;;;;;3.00;3.00;;;;;;;;5067599;28;8839;-81
2023/08/06 06:26:25;;;;;;;;;3.75;3.25;;;;;;;;5066730;28;8847;-82
2023/08/06 06:28:54;;;;;;;;;3.00;3.00;;;;;;;;5067383;28;9598;-81
2023/08/06 06:31:21;;;;;;;;;4.00;4.00;;;;;;;;5066071;28;8853;-79
2023/08/06 06:33:48;;;;;;;;;3.00;1.25;;;;;;;;5078303;28;8856;-82
2023/08/06 06:36:15;;;;;;;;;2.00;2.00;;;;;;;;5080550;28;8850;-76
2023/08/06 06:38:42;;;;;;;;;4.75;3.25;;;;;;;;5068314;28;9038;-76
2023/08/06 06:41:10;;;;;;;;;1.75;1.75;;;;;;;;5067376;28;8882;-80
2023/08/06 06:43:37;;;;;;;;;2.25;2.25;;;;;;;;5067423;28;8857;-76
2023/08/06 06:46:06;;;;;;;;;3.75;2.00;;;;;;;;5066407;28;8839;-77
2023/08/06 06:48:34;;;;;;;;;2.00;2.00;;;;;;;;5067474;28;8865;-72
2023/08/06 06:51:01;;;;;;;;;3.00;3.00;;;;;;;;5066830;28;9357;-74
2023/08/06 06:53:31;;;;;;;;;1.75;1.75;;;;;;;;5067071;28;8831;-77
2023/08/06 06:56:03;;;;;;;;;1.00;1.00;;;;;;;;5066751;28;8854;-79
2023/08/06 06:58:30;;;;;;;;;4.00;3.00;;;;;;;;5066894;28;8874;-74
2023/08/06 07:00:58;;;;;;;;;3.25;1.50;;;;;;;;5073614;28;8826;-77
2023/08/06 07:03:26;;;;;;;;;3.00;2.00;;;;;;;;5070672;28;8844;-78
2023/08/06 07:05:59;;;;;;;;;1.50;1.50;;;;;;;;5067660;28;8838;-75
2023/08/06 07:08:27;;;;;;;;;5.25;4.75;;;;;;;;5084334;28;8850;-78
2023/08/06 07:11:01;;;;;;;;;5.00;2.00;;;;;;;;5072886;28;8888;-79
2023/08/06 07:13:29;;;;;;;;;2.00;2.00;;;;;;;;5087491;28;8852;-79
2023/08/06 07:15:56;;;;;;;;;3.00;3.00;;;;;;;;5072958;28;8866;-79
2023/08/06 07:18:23;;;;;;;;;2.00;2.00;;;;;;;;5070334;28;9016;-78
2023/08/06 07:20:52;;;;;;;;;2.00;2.00;;;;;;;;5070616;28;9073;-79
2023/08/06 07:23:20;;;;;;;;;1.25;1.25;;;;;;;;5069684;28;8886;-77
2023/08/06 07:25:48;;;;;;;;;4.00;2.00;;;;;;;;5070026;28;8982;-79
2023/08/06 07:28:15;;;;;;;;;2.00;2.00;;;;;;;;5069787;28;8994;-80
2023/08/06 07:30:43;;;;;;;;;2.00;2.00;;;;;;;;5070179;28;8805;-75
2023/08/06 07:33:10;;;;;;;;;1.25;1.25;;;;;;;;5070155;28;8861;-83
2023/08/06 07:35:38;;;;;;;;;2.00;2.00;;;;;;;;5082600;28;8998;-74
2023/08/06 07:38:07;;;;;;;;;1.00;1.00;;;;;;;;5075563;28;8832;-76
2023/08/06 07:40:36;;;;;;;;;1.75;1.75;;;;;;;;5076738;28;8855;-81
2023/08/06 07:43:03;;;;;;;;;4.50;2.00;;;;;;;;5070585;28;9216;-77
2023/08/06 07:45:35;;;;;;;;;2.00;2.00;;;;;;;;5071141;28;8855;-78
2023/08/06 07:48:02;;;;;;;;;2.25;2.25;;;;;;;;5069825;28;9662;-80
2023/08/06 07:50:29;;;;;;;;;2.25;2.25;;;;;;;;5069443;28;8859;-80
2023/08/06 07:52:57;;;;;;;;;2.00;2.00;;;;;;;;5069985;28;8850;-76
2023/08/06 07:55:26;;;;;;;;;3.00;3.00;;;;;;;;5069088;28;8905;-75
2023/08/06 07:57:54;;;;;;;;;1.00;1.00;;;;;;;;5069964;28;8839;-84
2023/08/06 08:00:21;;;;;;;;;4.00;4.00;;;;;;;;5069551;28;9823;-81
2023/08/06 08:02:48;;;;;;;;;4.25;2.25;;;;;;;;5070204;28;8862;-80
2023/08/06 08:05:16;;;;;;;;;2.00;2.00;;;;;;;;5069400;28;8862;-76
2023/08/06 08:07:44;;;;;;;;;2.25;2.25;;;;;;;;5069895;28;8839;-74
2023/08/06 08:10:11;;;;;;;;;3.00;3.00;;;;;;;;5069035;28;8893;-75
2023/08/06 08:12:40;;;;;;;;;2.75;2.75;;;;;;;;5079226;28;8979;-76
2023/08/06 08:15:08;;;;;;;;;2.00;2.00;;;;;;;;5071033;28;8842;-76
2023/08/06 08:17:35;;;;;;;;;2.00;2.00;;;;;;;;5080614;28;8866;-76
2023/08/06 08:20:02;;;;;;;;;1.00;1.00;;;;;;;;5071508;28;8875;-75
2023/08/06 08:22:30;;;;;;;;;3.50;3.00;;;;;;;;5069785;28;8892;-79
2023/08/06 08:24:57;;;;;;;;;4.00;4.00;;;;;;;;5068772;28;8865;-81
2023/08/06 08:27:24;;;;;;;;;4.50;3.00;;;;;;;;5069169;28;8889;-76
2023/08/06 08:29:52;;;;;;;;;2.50;2.50;;;;;;;;5073039;28;8870;-83
2023/08/06 08:32:20;;;;;;;;;2.00;2.00;;;;;;;;5077271;28;8815;-80
2023/08/06 08:34:47;;;;;;;;;3.00;3.00;;;;;;;;5068914;28;8973;-78
2023/08/06 08:37:15;;;;;;;;;3.75;3.75;;;;;;;;5069129;28;8969;-80
2023/08/06 08:39:42;;;;;;;;;2.25;2.00;;;;;;;;5081085;28;9002;-76
2023/08/06 08:42:10;;;;;;;;;3.75;3.00;;;;;;;;5069718;28;8893;-81
2023/08/06 08:44:39;;;;;;;;;1.50;1.50;;;;;;;;5074623;28;8917;-86
2023/08/06 08:47:09;;;;;;;;;3.00;3.00;;;;;;;;5076663;28;9002;-95
2023/08/06 08:49:37;;;;;;;;;2.00;2.00;;;;;;;;5073646;28;8862;-93
2023/08/06 08:52:06;;;;;;;;;1.50;1.50;;;;;;;;5078227;28;8862;-75
2023/08/06 08:54:34;;;;;;;;;2.00;2.00;;;;;;;;5077004;28;8862;-79
2023/08/06 08:57:02;;;;;;;;;2.25;2.25;;;;;;;;5077484;28;8847;-88
2023/08/06 08:59:29;;;;;;;;;1.50;0.00;;;;;;;;5071214;28;8929;-90
2023/08/06 09:01:57;;;;;;;;;3.00;1.75;;;;;;;;5075242;28;8826;-84
2023/08/06 09:04:28;;;;;;;;;2.50;2.00;;;;;;;;5079003;28;8968;-80
2023/08/06 09:06:56;;;;;;;;;2.25;2.25;;;;;;;;5068399;28;8861;-88
2023/08/06 09:09:29;;;;;;;;;3.50;2.25;;;;;;;;5069834;28;9001;-71
2023/08/06 09:12:01;;;;;;;;;2.50;2.50;;;;;;;;5069144;28;8851;-80
2023/08/06 09:14:30;;;;;;;;;3.00;3.00;;;;;;;;5069014;28;8847;-85
2023/08/06 09:16:58;;;;;;;;;1.50;1.50;;;;;;;;5068462;28;8839;-80
2023/08/06 09:19:28;;;;;;;;;2.50;2.50;;;;;;;;5068244;28;8855;-82
2023/08/06 09:21:57;;;;;;;;;3.75;3.50;;;;;;;;5068616;28;8877;-80
2023/08/06 09:24:25;;;;;;;;;2.00;2.00;;;;;;;;5071192;28;8906;-80
2023/08/06 09:26:54;;;;;;;;;2.00;2.00;;;;;;;;5059913;28;8963;-86
2023/08/06 09:29:21;;;;;;;;;1.25;1.25;;;;;;;;5069271;28;8866;-81
2023/08/06 09:31:51;;;;;;;;;4.50;2.75;;;;;;;;5079116;28;8819;-77
2023/08/06 09:34:19;;;;;;;;;3.00;2.25;;;;;;;;5067279;28;8869;-81
2023/08/06 09:37:22;;;;;;;;;1.25;1.25;;;;;;;;5122917;27;13489;-83
2023/08/06 09:39:51;;;;;;;;;1.50;1.50;;;;;;;;5106592;28;8886;-80
2023/08/06 09:42:18;;;;;;;;;0.75;0.75;;;;;;;;5105206;28;8840;-78
2023/08/06 09:44:46;;;;;;;;;2.00;2.00;;;;;;;;5106009;28;8874;-78
2023/08/06 09:47:13;;;;;;;;;1.00;1.00;;;;;;;;5105027;28;8836;-81
2023/08/06 09:49:46;;;;;;;;;1.00;1.00;;;;;;;;5105616;28;9007;-79
2023/08/06 09:52:15;;;;;;;;;1.75;1.00;;;;;;;;5104547;28;8854;-80
2023/08/06 09:54:45;;;;;;;;;1.75;1.00;;;;;;;;5106233;28;8880;-78
2023/08/06 09:57:14;;;;;;;;;2.50;1.25;;;;;;;;5107403;28;9018;-87
2023/08/06 09:59:45;;;;;;;;;2.00;0.50;;;;;;;;5109591;28;8880;-94
2023/08/06 10:02:14;;;;;;;;;2.00;2.00;;;;;;;;5071922;28;8802;-84
2023/08/06 10:04:42;;;;;;;;;1.00;1.00;;;;;;;;5075316;28;8854;-79
2023/08/06 10:07:10;;;;;;;;;8.25;8.25;;;;;;;;5065342;28;8873;-83
2023/08/06 10:09:37;;;;;;;;;71.00;62.25;;;;;;;;5067939;28;8891;-85
2023/08/06 10:12:07;;;;;;;;;25.50;23.00;;;;;;;;5069200;28;10630;-78
2023/08/06 10:14:36;;;;;;;;;19.25;19.00;;;;;;;;5065679;28;8846;-84
2023/08/06 10:17:04;;;;;;;;;1.00;1.00;;;;;;;;5065567;28;8865;-80
2023/08/06 10:19:35;;;;;;;;;0.00;0.00;;;;;;;;5068500;28;8991;-91
2023/08/06 10:22:12;;;;;;;;;1.50;0.75;;;;;;;;5067574;28;8863;-93
2023/08/06 10:24:49;;;;;;;;;0.50;0.50;;;;;;;;5070169;28;8853;-86
2023/08/06 10:27:23;;;;;;;;;2.50;1.00;;;;;;;;5059522;28;8846;-90
2023/08/06 10:29:50;;;;;;;;;1.00;1.00;;;;;;;;5070405;28;8872;-92
2023/08/06 10:32:19;;;;;;;;;0.00;0.00;;;;;;;;5069185;28;8801;-88
2023/08/06 10:34:57;;;;;;;;;1.00;1.00;;;;;;;;5069986;28;8857;-85
2023/08/06 10:37:24;;;;;;;;;1.00;1.00;;;;;;;;5060227;28;8873;-88
2023/08/06 10:39:51;;;;;;;;;0.40;0.40;;;;;;;;5065382;28;8886;-89
2023/08/06 10:42:23;;;;;;;;;0.80;0.80;;;;;;;;5058621;28;8857;-75
2023/08/06 10:45:13;;;;;;;;;2.00;0.60;;;;;;;;5063398;28;8934;-81
2023/08/06 10:47:40;;;;;;;;;0.00;0.00;;;;;;;;5056761;28;8904;-79
2023/08/06 10:50:11;;;;;;;;;1.00;1.00;;;;;;;;5051012;28;8853;-83
2023/08/06 10:52:39;;;;;;;;;0.00;0.00;;;;;;;;5051389;28;8865;-88
2023/08/06 10:55:07;;;;;;;;;1.00;0.80;;;;;;;;5050808;28;8976;-78
2023/08/06 10:57:35;;;;;;;;;0.00;0.00;;;;;;;;5052210;28;8877;-95
2023/08/06 11:00:08;;;;;;;;;0.80;0.80;;;;;;;;5051418;28;8934;-75
2023/08/06 11:02:36;;;;;;;;;0.20;0.20;;;;;;;;5051097;28;8873;-85
2023/08/06 11:05:09;;;;;;;;;0.00;0.00;;;;;;;;5053156;28;8856;-82
2023/08/06 11:08:10;;;;;;;;;1.00;1.00;;;;;;;;5126315;27;14247;-85
2023/08/06 11:10:37;;;;;;;;;1.00;1.00;;;;;;;;5107882;28;8836;-87
2023/08/06 11:13:08;;;;;;;;;0.80;0.80;;;;;;;;5107147;27;8882;-84
2023/08/06 11:15:35;;;;;;;;;1.00;1.00;;;;;;;;5100755;28;8832;-81
2023/08/06 11:18:02;;;;;;;;;1.60;1.60;;;;;;;;5106363;28;8858;-81
2023/08/06 11:20:30;;;;;;;;;0.20;0.20;;;;;;;;5107772;28;8884;-84
2023/08/06 11:22:57;;;;;;;;;2.40;2.40;;;;;;;;5108472;28;9708;-83
2023/08/06 11:25:25;;;;;;;;;3.00;2.20;;;;;;;;5105968;28;8855;-75
2023/08/06 11:27:53;;;;;;;;;1.20;1.20;;;;;;;;5106698;28;9829;-75
2023/08/06 11:30:20;;;;;;;;;3.20;3.20;;;;;;;;5101097;28;8906;-82
2023/08/06 11:32:47;;;;;;;;;1.80;1.80;;;;;;;;5066465;28;8893;-90
2023/08/06 11:35:16;;;;;;;;;0.00;0.00;;;;;;;;5065791;28;8898;-84
2023/08/06 11:37:45;;;;;;;;;0.60;0.60;;;;;;;;5067996;28;8827;-85
2023/08/06 11:40:13;;;;;;;;;1.60;1.60;;;;;;;;5068771;28;8858;-80
2023/08/06 11:42:42;;;;;;;;;2.00;0.00;;;;;;;;5067767;28;8893;-83
2023/08/06 11:45:10;;;;;;;;;0.00;0.00;;;;;;;;5067439;28;8908;-81
2023/08/06 11:47:40;;;;;;;;;0.00;0.00;;;;;;;;5065317;28;8835;-84
2023/08/06 11:50:08;;;;;;;;;0.00;0.00;;;;;;;;5065396;28;8854;-79
2023/08/06 11:52:36;;;;;;;;;0.00;0.00;;;;;;;;5065293;28;9695;-85
2023/08/06 11:55:06;;;;;;;;;0.00;0.00;;;;;;;;5066560;28;8851;-77
2023/08/06 11:57:35;;;;;;;;;0.00;0.00;;;;;;;;5064858;28;8913;-85
2023/08/06 12:00:05;;;;;;;;;0.00;0.00;;;;;;;;5065698;28;8851;-90
2023/08/06 12:02:36;;;;;;;;;0.00;0.00;;;;;;;;5066750;28;8831;-87
2023/08/06 12:05:05;;;;;;;;;0.80;0.00;;;;;;;;5079643;28;9746;-82
2023/08/06 12:07:33;;;;;;;;;0.00;0.00;;;;;;;;5068219;28;8841;-82
2023/08/06 12:10:01;;;;;;;;;0.00;0.00;;;;;;;;5068514;28;8824;-79
2023/08/06 12:12:29;;;;;;;;;0.00;0.00;;;;;;;;5072065;28;8867;-81
2023/08/06 12:14:56;;;;;;;;;0.00;0.00;;;;;;;;5078635;28;8880;-79
2023/08/06 12:17:25;;;;;;;;;0.00;0.00;;;;;;;;5071136;28;8866;-82
2023/08/06 12:19:53;;;;;;;;;0.00;0.00;;;;;;;;5060053;28;8865;-82
2023/08/06 12:22:20;;;;;;;;;0.00;0.00;;;;;;;;5056586;28;9088;-83
2023/08/06 12:24:48;;;;;;;;;0.80;0.80;;;;;;;;5054963;28;9592;-85
2023/08/06 12:27:16;;;;;;;;;0.00;0.00;;;;;;;;5053754;28;8870;-82
2023/08/06 12:29:44;;;;;;;;;0.00;0.00;;;;;;;;5056073;28;8897;-77
2023/08/06 12:32:11;;;;;;;;;0.00;0.00;;;;;;;;5052762;28;8836;-92
2023/08/06 12:34:43;;;;;;;;;1.00;1.00;;;;;;;;5055550;28;8868;-78
2023/08/06 12:37:11;;;;;;;;;0.40;0.40;;;;;;;;5053270;28;8869;-81
2023/08/06 12:39:38;;;;;;;;;0.60;0.60;;;;;;;;5052761;28;8954;-80
2023/08/06 12:42:08;;;;;;;;;0.60;0.60;;;;;;;;5053895;28;8981;-79
2023/08/06 12:44:35;;;;;;;;;0.00;0.00;;;;;;;;5054167;28;8842;-77
2023/08/06 12:47:03;;;;;;;;;1.00;1.00;;;;;;;;5054865;28;8870;-88
2023/08/06 12:49:31;;;;;;;;;1.00;1.00;;;;;;;;5052958;28;8871;-83
2023/08/06 12:52:00;;;;;;;;;0.25;0.25;;;;;;;;5053153;28;8916;-88
2023/08/06 12:54:28;;;;;;;;;1.00;1.00;;;;;;;;5063852;28;8876;-85
2023/08/06 12:56:55;;;;;;;;;1.00;1.00;;;;;;;;5054547;28;8965;-86
2023/08/06 12:59:23;;;;;;;;;1.00;1.00;;;;;;;;5052196;28;8870;-77
2023/08/06 13:01:53;;;;;;;;;2.00;1.00;;;;;;;;5054602;28;8785;-82
2023/08/06 13:04:23;;;;;;;;;0.00;0.00;;;;;;;;5052218;28;8885;-82
2023/08/06 13:06:53;;;;;;;;;0.50;0.50;;;;;;;;5052087;28;9117;-84
2023/08/06 13:09:22;;;;;;;;;1.00;1.00;;;;;;;;5050516;28;8880;-79
2023/08/06 13:11:50;;;;;;;;;0.00;0.00;;;;;;;;5050468;28;8911;-78
2023/08/06 13:14:18;;;;;;;;;1.00;1.00;;;;;;;;5053480;28;9696;-78
2023/08/06 13:16:46;;;;;;;;;1.00;1.00;;;;;;;;5053295;28;8855;-81
2023/08/06 13:19:13;;;;;;;;;0.75;0.75;;;;;;;;5038653;28;8864;-79
2023/08/06 13:22:05;;;;;;;;;0.00;0.00;;;;;;;;5048072;28;8842;-79
2023/08/06 13:24:34;;;;;;;;;0.25;0.25;;;;;;;;5049453;28;8866;-84
2023/08/06 13:27:01;;;;;;;;;0.00;0.00;;;;;;;;5049175;28;8872;-81
2023/08/06 13:29:28;;;;;;;;;1.40;0.60;;;;;;;;5048722;28;8857;-80
2023/08/06 13:31:56;;;;;;;;;0.00;0.00;;;;;;;;5048975;28;8820;-79
2023/08/06 13:34:23;;;;;;;;;1.20;1.00;;;;;;;;5048428;28;9036;-77
2023/08/06 13:36:50;;;;;;;;;0.00;0.00;;;;;;;;5049450;28;8862;-78
2023/08/06 13:39:18;;;;;;;;;1.00;1.00;;;;;;;;5049770;28;8882;-81
2023/08/06 13:41:46;;;;;;;;;1.00;1.00;;;;;;;;5049247;28;8858;-81
2023/08/06 13:44:14;;;;;;;;;0.00;0.00;;;;;;;;5049832;28;8964;-81
2023/08/06 13:46:43;;;;;;;;;0.00;0.00;;;;;;;;5051958;28;8866;-78
2023/08/06 13:49:10;;;;;;;;;0.20;0.20;;;;;;;;5053722;28;8861;-79
2023/08/06 13:51:38;;;;;;;;;1.00;1.00;;;;;;;;5057775;28;8886;-81
2023/08/06 13:54:06;;;;;;;;;0.00;0.00;;;;;;;;5061658;28;8985;-78
2023/08/06 13:56:37;;;;;;;;;0.40;0.40;;;;;;;;5058694;28;8985;-80
2023/08/06 13:59:06;;;;;;;;;0.00;0.00;;;;;;;;5051511;28;8874;-80
2023/08/06 14:01:33;;;;;;;;;0.00;0.00;;;;;;;;5057450;28;8808;-82
2023/08/06 14:04:00;;;;;;;;;2.00;0.40;;;;;;;;5049436;28;8874;-82
2023/08/06 14:06:30;;;;;;;;;1.00;1.00;;;;;;;;5048814;28;8851;-81
2023/08/06 14:08:57;;;;;;;;;0.00;0.00;;;;;;;;5048441;28;8854;-80
2023/08/06 14:11:24;;;;;;;;;1.00;1.00;;;;;;;;5048258;28;8874;-82
2023/08/06 14:13:52;;;;;;;;;0.80;0.80;;;;;;;;5048878;28;8858;-81
2023/08/06 14:16:20;;;;;;;;;0.00;0.00;;;;;;;;5055566;28;8866;-81
2023/08/06 14:18:47;;;;;;;;;1.00;1.00;;;;;;;;5039074;28;8857;-86
2023/08/06 14:21:15;;;;;;;;;0.60;0.60;;;;;;;;5050908;28;9015;-82
2023/08/06 14:23:42;;;;;;;;;0.00;0.00;;;;;;;;5050383;28;8863;-87
2023/08/06 14:26:14;;;;;;;;;0.00;0.00;;;;;;;;5049679;28;8878;-80
2023/08/06 14:28:42;;;;;;;;;0.60;0.60;;;;;;;;5048824;28;9005;-81
2023/08/06 14:31:09;;;;;;;;;1.00;1.00;;;;;;;;5036181;28;8781;-78
2023/08/06 14:33:37;;;;;;;;;0.00;0.00;;;;;;;;5048860;28;8863;-81
2023/08/06 14:36:05;;;;;;;;;0.80;0.80;;;;;;;;5046006;28;8888;-77
2023/08/06 14:38:32;;;;;;;;;0.20;0.20;;;;;;;;5039816;28;8858;-76
2023/08/06 14:40:59;;;;;;;;;0.00;0.00;;;;;;;;5049030;28;8885;-82
2023/08/06 14:43:27;;;;;;;;;0.60;0.60;;;;;;;;5048893;28;8931;-79
2023/08/06 14:45:54;;;;;;;;;1.00;1.00;;;;;;;;5050961;28;8846;-80
2023/08/06 14:48:21;;;;;;;;;0.00;0.00;;;;;;;;5049758;28;8956;-85
2023/08/06 14:50:50;;;;;;;;;1.00;1.00;;;;;;;;5049771;28;8873;-81
2023/08/06 14:53:20;;;;;;;;;0.20;0.20;;;;;;;;5037812;28;8864;-81
2023/08/06 14:55:47;;;;;;;;;1.00;1.00;;;;;;;;5048358;28;8838;-80
2023/08/06 14:58:14;;;;;;;;;1.00;1.00;;;;;;;;5048252;28;8920;-80
2023/08/06 15:00:45;;;;;;;;;2.00;2.00;;;;;;;;5048246;28;8817;-81
2023/08/06 15:03:12;;;;;;;;;3.00;1.60;;;;;;;;5047820;28;9273;-81